ENMS Airport Information

Runway Information
Runway 16 Length 3015 ft width 98 ft Elevation 222 ft Threshold 197 ft Heading 161
Runway 34 Length 3015 ft Width 98 ft Elevation 237 ft Threshold 197 ft Heading 341
Airport Frequencies
Type AFIS Name MOSJOEN IN Frequency 123.4 MHZ
Type ATIS Name ATIS Frequency 112.25 MHZ
Airport Navaids
Type TACAN Name Mosjoen Frequency 113900 KHZ
Type VOR-DME Name Vardefjell Frequency 112250 KHZ
Airport Weather Information & NOTAM
ADDS - METARS form results

(1804 UTC 01 December 2022)
Data provider http://aviationweather.gov/metar/data/
 
METAR text: ENMS 011750Z 00000KT 9999 SCT051 M04/M05 Q1037 RMK WIND 412FT 27003KT
Conditions at: ENMS (MOSJOEN/KJAERSTA, NO) observed 1750 UTC 01 December 2022
Temperature: -4.0°C (25°F)
Dewpoint: -5.0°C (23°F) [RH = 93%]
Pressure (altimeter): 30.62 inches Hg (1037.0 mb)
Winds: calm
Visibility: 6 or more miles (10+ km)
Ceiling: at least 12,000 feet AGL
Clouds: scattered clouds at 5100 feet AGL
Weather: no significant weather observed at this time

METAR text: ENMS 011720Z 00000KT 9999 FEW055 M04/M05 Q1037 RMK WIND 412FT 27003KT
Conditions at: ENMS (MOSJOEN/KJAERSTA, NO) observed 1720 UTC 01 December 2022
Temperature: -4.0°C (25°F)
Dewpoint: -5.0°C (23°F) [RH = 93%]
Pressure (altimeter): 30.62 inches Hg (1037.0 mb)
Winds: calm
Visibility: 6 or more miles (10+ km)
Ceiling: at least 12,000 feet AGL
Clouds: few clouds at 5500 feet AGL
Weather: no significant weather observed at this time

Forecast for: ENMS (MOSJOEN/KJAERSTA, NO)
Text: TAF ENMS 011400Z 0115/0122 18005KT 9999 FEW040 BKN060
Forecast period: 1500 to 2200 UTC 01 December 2022
Forecast type: FROM: standard forecast or significant change
Winds: from the S (180 degrees) at 6 MPH (5 knots; 2.6 m/s)
Visibility: 6 or more miles (10+ km)
Ceiling: 6000 feet AGL
Clouds: few clouds at 4000 feet AGL
broken clouds at 6000 feet AGL
Weather: no significant weather forecast for this period